sensor_id;sensor_type;location;lat;lon;timestamp;P1;durP1;ratioP1;P2;durP2;ratioP2
25657;SDS011;13517;59.320;18.042;2023-04-07T00:01:12;6.40;;;3.95;;
25657;SDS011;13517;59.320;18.042;2023-04-07T00:03:38;6.00;;;3.83;;
25657;SDS011;13517;59.320;18.042;2023-04-07T00:06:04;5.03;;;3.97;;
25657;SDS011;13517;59.320;18.042;2023-04-07T00:08:30;6.38;;;4.25;;
25657;SDS011;13517;59.320;18.042;2023-04-07T00:10:55;6.05;;;3.78;;
25657;SDS011;13517;59.320;18.042;2023-04-07T00:13:21;6.50;;;4.05;;
25657;SDS011;13517;59.320;18.042;2023-04-07T00:15:46;5.63;;;3.95;;
25657;SDS011;13517;59.320;18.042;2023-04-07T00:18:12;6.47;;;4.45;;
25657;SDS011;13517;59.320;18.042;2023-04-07T00:20:37;6.90;;;4.40;;
25657;SDS011;13517;59.320;18.042;2023-04-07T00:23:02;5.85;;;4.18;;
25657;SDS011;13517;59.320;18.042;2023-04-07T00:25:27;4.93;;;3.53;;
25657;SDS011;13517;59.320;18.042;2023-04-07T00:27:53;5.82;;;4.25;;
25657;SDS011;13517;59.320;18.042;2023-04-07T00:30:18;6.45;;;4.10;;
25657;SDS011;13517;59.320;18.042;2023-04-07T00:32:43;5.78;;;3.90;;
25657;SDS011;13517;59.320;18.042;2023-04-07T00:35:08;5.68;;;3.70;;
25657;SDS011;13517;59.320;18.042;2023-04-07T00:37:34;8.80;;;4.20;;
25657;SDS011;13517;59.320;18.042;2023-04-07T00:39:59;6.57;;;4.00;;
25657;SDS011;13517;59.320;18.042;2023-04-07T00:42:25;6.90;;;3.78;;
25657;SDS011;13517;59.320;18.042;2023-04-07T00:44:50;5.78;;;3.80;;
25657;SDS011;13517;59.320;18.042;2023-04-07T00:47:15;5.47;;;3.88;;
25657;SDS011;13517;59.320;18.042;2023-04-07T00:49:41;6.22;;;4.10;;
25657;SDS011;13517;59.320;18.042;2023-04-07T00:52:06;6.50;;;4.32;;
25657;SDS011;13517;59.320;18.042;2023-04-07T00:54:32;8.95;;;4.90;;
25657;SDS011;13517;59.320;18.042;2023-04-07T00:56:57;5.35;;;3.95;;
25657;SDS011;13517;59.320;18.042;2023-04-07T00:59:22;6.35;;;3.97;;
25657;SDS011;13517;59.320;18.042;2023-04-07T01:01:56;6.40;;;4.30;;
25657;SDS011;13517;59.320;18.042;2023-04-07T01:06:51;6.47;;;4.25;;
25657;SDS011;13517;59.320;18.042;2023-04-07T01:09:20;6.60;;;3.97;;
25657;SDS011;13517;59.320;18.042;2023-04-07T01:14:21;10.55;;;5.10;;
25657;SDS011;13517;59.320;18.042;2023-04-07T01:16:51;6.57;;;4.63;;
25657;SDS011;13517;59.320;18.042;2023-04-07T01:21:54;8.50;;;5.18;;
25657;SDS011;13517;59.320;18.042;2023-04-07T01:26:45;8.48;;;5.45;;
25657;SDS011;13517;59.320;18.042;2023-04-07T01:29:44;7.93;;;4.85;;
25657;SDS011;13517;59.320;18.042;2023-04-07T01:32:04;9.50;;;5.22;;
25657;SDS011;13517;59.320;18.042;2023-04-07T01:34:32;9.88;;;5.50;;
25657;SDS011;13517;59.320;18.042;2023-04-07T01:36:58;10.10;;;5.75;;
25657;SDS011;13517;59.320;18.042;2023-04-07T01:39:26;12.43;;;5.90;;
25657;SDS011;13517;59.320;18.042;2023-04-07T01:41:51;11.32;;;6.10;;
25657;SDS011;13517;59.320;18.042;2023-04-07T01:44:17;10.82;;;5.63;;
25657;SDS011;13517;59.320;18.042;2023-04-07T01:46:43;10.85;;;6.28;;
25657;SDS011;13517;59.320;18.042;2023-04-07T01:49:08;13.77;;;6.15;;
25657;SDS011;13517;59.320;18.042;2023-04-07T01:51:35;9.55;;;5.55;;
25657;SDS011;13517;59.320;18.042;2023-04-07T01:54:01;10.73;;;5.43;;
25657;SDS011;13517;59.320;18.042;2023-04-07T01:56:26;11.20;;;6.03;;
25657;SDS011;13517;59.320;18.042;2023-04-07T01:58:52;11.05;;;5.75;;
25657;SDS011;13517;59.320;18.042;2023-04-07T02:01:17;10.43;;;6.22;;
25657;SDS011;13517;59.320;18.042;2023-04-07T02:03:48;12.45;;;7.10;;
25657;SDS011;13517;59.320;18.042;2023-04-07T02:08:43;9.70;;;5.13;;
25657;SDS011;13517;59.320;18.042;2023-04-07T02:11:11;10.65;;;5.80;;
25657;SDS011;13517;59.320;18.042;2023-04-07T02:13:37;11.05;;;5.57;;
25657;SDS011;13517;59.320;18.042;2023-04-07T02:16:03;12.95;;;5.82;;
25657;SDS011;13517;59.320;18.042;2023-04-07T02:18:29;13.60;;;7.40;;
25657;SDS011;13517;59.320;18.042;2023-04-07T02:20:56;13.63;;;7.07;;
25657;SDS011;13517;59.320;18.042;2023-04-07T02:23:22;13.93;;;7.50;;
25657;SDS011;13517;59.320;18.042;2023-04-07T02:25:47;12.95;;;7.00;;
25657;SDS011;13517;59.320;18.042;2023-04-07T02:28:13;11.80;;;6.85;;
25657;SDS011;13517;59.320;18.042;2023-04-07T02:30:38;17.88;;;6.70;;
25657;SDS011;13517;59.320;18.042;2023-04-07T02:33:03;15.23;;;6.95;;
25657;SDS011;13517;59.320;18.042;2023-04-07T02:35:28;13.20;;;7.25;;
25657;SDS011;13517;59.320;18.042;2023-04-07T02:37:54;15.35;;;6.78;;
25657;SDS011;13517;59.320;18.042;2023-04-07T02:40:19;16.13;;;7.38;;
25657;SDS011;13517;59.320;18.042;2023-04-07T02:42:45;12.65;;;6.93;;
25657;SDS011;13517;59.320;18.042;2023-04-07T02:45:10;18.50;;;7.75;;
25657;SDS011;13517;59.320;18.042;2023-04-07T02:47:36;17.65;;;7.18;;
25657;SDS011;13517;59.320;18.042;2023-04-07T02:50:02;18.52;;;7.25;;
25657;SDS011;13517;59.320;18.042;2023-04-07T02:52:27;15.30;;;6.55;;
25657;SDS011;13517;59.320;18.042;2023-04-07T02:54:52;16.95;;;7.85;;
25657;SDS011;13517;59.320;18.042;2023-04-07T02:57:18;16.88;;;7.55;;
25657;SDS011;13517;59.320;18.042;2023-04-07T02:59:43;14.80;;;7.20;;
25657;SDS011;13517;59.320;18.042;2023-04-07T03:02:08;15.48;;;7.05;;
25657;SDS011;13517;59.320;18.042;2023-04-07T03:04:33;19.88;;;8.07;;
25657;SDS011;13517;59.320;18.042;2023-04-07T03:06:59;19.77;;;6.57;;
25657;SDS011;13517;59.320;18.042;2023-04-07T03:09:24;19.83;;;7.22;;
25657;SDS011;13517;59.320;18.042;2023-04-07T03:11:50;22.30;;;8.80;;
25657;SDS011;13517;59.320;18.042;2023-04-07T03:14:15;18.10;;;7.55;;
25657;SDS011;13517;59.320;18.042;2023-04-07T03:16:41;30.27;;;8.57;;
25657;SDS011;13517;59.320;18.042;2023-04-07T03:19:06;20.52;;;8.50;;
25657;SDS011;13517;59.320;18.042;2023-04-07T03:21:31;26.73;;;7.93;;
25657;SDS011;13517;59.320;18.042;2023-04-07T03:23:57;17.35;;;7.25;;
25657;SDS011;13517;59.320;18.042;2023-04-07T03:26:22;19.10;;;7.93;;
25657;SDS011;13517;59.320;18.042;2023-04-07T03:28:47;16.48;;;7.30;;
25657;SDS011;13517;59.320;18.042;2023-04-07T03:31:13;18.80;;;8.57;;
25657;SDS011;13517;59.320;18.042;2023-04-07T03:33:38;16.08;;;6.95;;
25657;SDS011;13517;59.320;18.042;2023-04-07T03:36:03;27.27;;;8.70;;
25657;SDS011;13517;59.320;18.042;2023-04-07T03:38:29;16.10;;;7.72;;
25657;SDS011;13517;59.320;18.042;2023-04-07T03:40:54;19.40;;;8.25;;
25657;SDS011;13517;59.320;18.042;2023-04-07T03:43:19;17.70;;;7.53;;
25657;SDS011;13517;59.320;18.042;2023-04-07T03:45:45;20.15;;;7.78;;
25657;SDS011;13517;59.320;18.042;2023-04-07T03:48:10;23.85;;;8.30;;
25657;SDS011;13517;59.320;18.042;2023-04-07T03:50:39;23.33;;;9.40;;
25657;SDS011;13517;59.320;18.042;2023-04-07T03:53:04;21.20;;;8.30;;
25657;SDS011;13517;59.320;18.042;2023-04-07T03:55:30;21.50;;;8.75;;
25657;SDS011;13517;59.320;18.042;2023-04-07T03:57:56;16.63;;;8.75;;
25657;SDS011;13517;59.320;18.042;2023-04-07T04:00:21;21.95;;;8.82;;
25657;SDS011;13517;59.320;18.042;2023-04-07T04:02:47;22.95;;;8.00;;
25657;SDS011;13517;59.320;18.042;2023-04-07T04:05:12;25.30;;;9.48;;
25657;SDS011;13517;59.320;18.042;2023-04-07T04:07:37;22.15;;;8.95;;
25657;SDS011;13517;59.320;18.042;2023-04-07T04:10:03;27.02;;;7.10;;
25657;SDS011;13517;59.320;18.042;2023-04-07T04:12:28;24.20;;;9.52;;
25657;SDS011;13517;59.320;18.042;2023-04-07T04:14:53;21.75;;;8.52;;
25657;SDS011;13517;59.320;18.042;2023-04-07T04:17:18;34.58;;;9.00;;
25657;SDS011;13517;59.320;18.042;2023-04-07T04:19:44;27.50;;;8.60;;
25657;SDS011;13517;59.320;18.042;2023-04-07T04:22:09;21.13;;;7.78;;
25657;SDS011;13517;59.320;18.042;2023-04-07T04:24:35;20.48;;;8.10;;
25657;SDS011;13517;59.320;18.042;2023-04-07T04:27:00;17.27;;;6.97;;
25657;SDS011;13517;59.320;18.042;2023-04-07T04:29:26;32.13;;;8.65;;
25657;SDS011;13517;59.320;18.042;2023-04-07T04:31:51;16.95;;;7.80;;
25657;SDS011;13517;59.320;18.042;2023-04-07T04:34:16;23.17;;;8.75;;
25657;SDS011;13517;59.320;18.042;2023-04-07T04:36:42;16.33;;;6.78;;
25657;SDS011;13517;59.320;18.042;2023-04-07T04:39:07;27.50;;;9.85;;
25657;SDS011;13517;59.320;18.042;2023-04-07T04:41:32;22.85;;;8.52;;
25657;SDS011;13517;59.320;18.042;2023-04-07T04:43:59;20.92;;;8.50;;
25657;SDS011;13517;59.320;18.042;2023-04-07T04:46:24;22.42;;;8.18;;
25657;SDS011;13517;59.320;18.042;2023-04-07T04:48:50;25.23;;;7.88;;
25657;SDS011;13517;59.320;18.042;2023-04-07T04:51:19;31.83;;;8.77;;
25657;SDS011;13517;59.320;18.042;2023-04-07T04:53:44;29.90;;;7.97;;
25657;SDS011;13517;59.320;18.042;2023-04-07T04:56:09;25.70;;;7.72;;
25657;SDS011;13517;59.320;18.042;2023-04-07T04:58:35;34.95;;;9.10;;
25657;SDS011;13517;59.320;18.042;2023-04-07T05:01:00;35.35;;;8.95;;
25657;SDS011;13517;59.320;18.042;2023-04-07T05:03:27;32.28;;;7.60;;
25657;SDS011;13517;59.320;18.042;2023-04-07T05:05:52;29.98;;;8.70;;
25657;SDS011;13517;59.320;18.042;2023-04-07T05:08:17;33.58;;;8.02;;
25657;SDS011;13517;59.320;18.042;2023-04-07T05:10:43;27.75;;;9.38;;
25657;SDS011;13517;59.320;18.042;2023-04-07T05:13:08;24.80;;;9.25;;
25657;SDS011;13517;59.320;18.042;2023-04-07T05:15:33;23.35;;;8.20;;
25657;SDS011;13517;59.320;18.042;2023-04-07T05:17:58;41.72;;;9.13;;
25657;SDS011;13517;59.320;18.042;2023-04-07T05:20:24;26.90;;;8.40;;
25657;SDS011;13517;59.320;18.042;2023-04-07T05:22:49;21.85;;;8.40;;
25657;SDS011;13517;59.320;18.042;2023-04-07T05:25:15;31.58;;;9.70;;
25657;SDS011;13517;59.320;18.042;2023-04-07T05:27:40;26.33;;;7.70;;
25657;SDS011;13517;59.320;18.042;2023-04-07T05:30:06;26.85;;;8.40;;
25657;SDS011;13517;59.320;18.042;2023-04-07T05:32:31;22.55;;;8.65;;
25657;SDS011;13517;59.320;18.042;2023-04-07T05:34:56;23.23;;;7.40;;
25657;SDS011;13517;59.320;18.042;2023-04-07T05:37:22;15.98;;;7.65;;
25657;SDS011;13517;59.320;18.042;2023-04-07T05:39:47;21.08;;;7.80;;
25657;SDS011;13517;59.320;18.042;2023-04-07T05:42:12;18.55;;;7.50;;
25657;SDS011;13517;59.320;18.042;2023-04-07T05:44:37;19.00;;;7.95;;
25657;SDS011;13517;59.320;18.042;2023-04-07T05:47:03;17.58;;;8.52;;
25657;SDS011;13517;59.320;18.042;2023-04-07T05:49:33;19.90;;;8.48;;
25657;SDS011;13517;59.320;18.042;2023-04-07T05:51:58;20.70;;;8.10;;
25657;SDS011;13517;59.320;18.042;2023-04-07T05:54:23;17.88;;;8.32;;
25657;SDS011;13517;59.320;18.042;2023-04-07T05:56:48;17.77;;;8.68;;
25657;SDS011;13517;59.320;18.042;2023-04-07T05:59:14;18.23;;;7.85;;
25657;SDS011;13517;59.320;18.042;2023-04-07T06:01:40;14.48;;;7.25;;
25657;SDS011;13517;59.320;18.042;2023-04-07T06:04:06;15.13;;;7.13;;
25657;SDS011;13517;59.320;18.042;2023-04-07T06:06:31;17.30;;;7.35;;
25657;SDS011;13517;59.320;18.042;2023-04-07T06:08:56;14.32;;;6.95;;
25657;SDS011;13517;59.320;18.042;2023-04-07T06:11:21;16.30;;;7.32;;
25657;SDS011;13517;59.320;18.042;2023-04-07T06:13:47;14.13;;;7.05;;
25657;SDS011;13517;59.320;18.042;2023-04-07T06:16:12;16.80;;;7.60;;
25657;SDS011;13517;59.320;18.042;2023-04-07T06:18:38;17.20;;;7.47;;
25657;SDS011;13517;59.320;18.042;2023-04-07T06:21:04;15.50;;;7.97;;
25657;SDS011;13517;59.320;18.042;2023-04-07T06:23:29;16.30;;;7.38;;
25657;SDS011;13517;59.320;18.042;2023-04-07T06:25:55;17.13;;;7.85;;
25657;SDS011;13517;59.320;18.042;2023-04-07T06:28:20;17.27;;;7.53;;
25657;SDS011;13517;59.320;18.042;2023-04-07T06:30:46;10.98;;;5.97;;
25657;SDS011;13517;59.320;18.042;2023-04-07T06:33:12;13.48;;;7.40;;
25657;SDS011;13517;59.320;18.042;2023-04-07T06:35:38;16.50;;;8.02;;
25657;SDS011;13517;59.320;18.042;2023-04-07T06:38:03;12.20;;;6.50;;
25657;SDS011;13517;59.320;18.042;2023-04-07T06:40:28;13.88;;;6.60;;
25657;SDS011;13517;59.320;18.042;2023-04-07T06:42:54;12.80;;;6.90;;
25657;SDS011;13517;59.320;18.042;2023-04-07T06:45:19;16.55;;;7.20;;
25657;SDS011;13517;59.320;18.042;2023-04-07T06:47:44;9.10;;;5.13;;
25657;SDS011;13517;59.320;18.042;2023-04-07T06:50:10;11.05;;;5.80;;
25657;SDS011;13517;59.320;18.042;2023-04-07T06:52:35;11.20;;;6.15;;
25657;SDS011;13517;59.320;18.042;2023-04-07T06:55:00;10.70;;;5.47;;
25657;SDS011;13517;59.320;18.042;2023-04-07T06:57:26;11.60;;;5.22;;
25657;SDS011;13517;59.320;18.042;2023-04-07T06:59:51;9.70;;;5.45;;
25657;SDS011;13517;59.320;18.042;2023-04-07T07:02:16;9.57;;;5.53;;
25657;SDS011;13517;59.320;18.042;2023-04-07T07:04:42;9.68;;;5.47;;
25657;SDS011;13517;59.320;18.042;2023-04-07T07:07:07;11.10;;;5.60;;
25657;SDS011;13517;59.320;18.042;2023-04-07T07:09:32;10.60;;;5.72;;
25657;SDS011;13517;59.320;18.042;2023-04-07T07:11:57;7.78;;;4.65;;
25657;SDS011;13517;59.320;18.042;2023-04-07T07:14:23;10.43;;;5.60;;
25657;SDS011;13517;59.320;18.042;2023-04-07T07:16:48;8.38;;;5.05;;
25657;SDS011;13517;59.320;18.042;2023-04-07T07:19:13;10.48;;;5.80;;
25657;SDS011;13517;59.320;18.042;2023-04-07T07:21:39;9.63;;;5.50;;
25657;SDS011;13517;59.320;18.042;2023-04-07T07:24:04;9.23;;;5.13;;
25657;SDS011;13517;59.320;18.042;2023-04-07T07:26:29;8.00;;;4.75;;
25657;SDS011;13517;59.320;18.042;2023-04-07T07:28:55;9.30;;;5.03;;
25657;SDS011;13517;59.320;18.042;2023-04-07T07:31:20;9.15;;;4.90;;
25657;SDS011;13517;59.320;18.042;2023-04-07T07:33:45;10.00;;;4.93;;
25657;SDS011;13517;59.320;18.042;2023-04-07T07:36:12;6.97;;;4.47;;
25657;SDS011;13517;59.320;18.042;2023-04-07T07:38:38;6.25;;;3.70;;
25657;SDS011;13517;59.320;18.042;2023-04-07T07:41:04;6.82;;;4.00;;
25657;SDS011;13517;59.320;18.042;2023-04-07T07:43:30;7.72;;;4.60;;
25657;SDS011;13517;59.320;18.042;2023-04-07T07:45:55;11.88;;;4.65;;
25657;SDS011;13517;59.320;18.042;2023-04-07T07:48:20;6.28;;;3.63;;
25657;SDS011;13517;59.320;18.042;2023-04-07T07:50:46;6.97;;;4.10;;
25657;SDS011;13517;59.320;18.042;2023-04-07T07:53:12;6.72;;;4.45;;
25657;SDS011;13517;59.320;18.042;2023-04-07T07:55:37;7.57;;;4.38;;
25657;SDS011;13517;59.320;18.042;2023-04-07T07:58:02;7.50;;;4.38;;
25657;SDS011;13517;59.320;18.042;2023-04-07T08:00:28;9.60;;;4.72;;
25657;SDS011;13517;59.320;18.042;2023-04-07T08:02:53;6.63;;;3.78;;
25657;SDS011;13517;59.320;18.042;2023-04-07T08:05:18;7.47;;;4.07;;
25657;SDS011;13517;59.320;18.042;2023-04-07T08:07:44;7.97;;;4.10;;
25657;SDS011;13517;59.320;18.042;2023-04-07T08:10:10;6.38;;;3.85;;
25657;SDS011;13517;59.320;18.042;2023-04-07T08:12:36;7.18;;;4.20;;
25657;SDS011;13517;59.320;18.042;2023-04-07T08:15:01;5.70;;;3.25;;
25657;SDS011;13517;59.320;18.042;2023-04-07T08:17:26;6.78;;;3.78;;
25657;SDS011;13517;59.320;18.042;2023-04-07T08:19:52;6.80;;;3.78;;
25657;SDS011;13517;59.320;18.042;2023-04-07T08:22:17;9.13;;;3.95;;
25657;SDS011;13517;59.320;18.042;2023-04-07T08:24:45;6.82;;;3.70;;
25657;SDS011;13517;59.320;18.042;2023-04-07T08:27:11;7.40;;;4.10;;
25657;SDS011;13517;59.320;18.042;2023-04-07T08:29:36;6.10;;;3.30;;
25657;SDS011;13517;59.320;18.042;2023-04-07T08:32:01;6.93;;;3.70;;
25657;SDS011;13517;59.320;18.042;2023-04-07T08:34:27;5.88;;;3.72;;
25657;SDS011;13517;59.320;18.042;2023-04-07T08:36:52;9.60;;;3.65;;
25657;SDS011;13517;59.320;18.042;2023-04-07T08:39:17;4.15;;;2.47;;
25657;SDS011;13517;59.320;18.042;2023-04-07T08:41:43;3.67;;;2.60;;
25657;SDS011;13517;59.320;18.042;2023-04-07T08:44:09;4.20;;;2.50;;
25657;SDS011;13517;59.320;18.042;2023-04-07T08:46:35;5.78;;;2.53;;
25657;SDS011;13517;59.320;18.042;2023-04-07T08:49:02;4.00;;;2.58;;
25657;SDS011;13517;59.320;18.042;2023-04-07T08:51:31;3.40;;;2.53;;
25657;SDS011;13517;59.320;18.042;2023-04-07T08:54:08;3.92;;;2.40;;
25657;SDS011;13517;59.320;18.042;2023-04-07T08:56:34;2.63;;;1.80;;
25657;SDS011;13517;59.320;18.042;2023-04-07T08:59:02;3.72;;;2.42;;
25657;SDS011;13517;59.320;18.042;2023-04-07T09:01:28;2.78;;;2.15;;
25657;SDS011;13517;59.320;18.042;2023-04-07T09:03:53;3.28;;;2.00;;
25657;SDS011;13517;59.320;18.042;2023-04-07T09:06:21;3.65;;;2.03;;
25657;SDS011;13517;59.320;18.042;2023-04-07T09:08:46;1.95;;;1.52;;
25657;SDS011;13517;59.320;18.042;2023-04-07T09:11:12;3.25;;;1.50;;
25657;SDS011;13517;59.320;18.042;2023-04-07T09:13:37;2.10;;;1.70;;
25657;SDS011;13517;59.320;18.042;2023-04-07T09:16:02;2.08;;;1.50;;
25657;SDS011;13517;59.320;18.042;2023-04-07T09:18:28;2.38;;;1.80;;
25657;SDS011;13517;59.320;18.042;2023-04-07T09:20:57;1.48;;;1.30;;
25657;SDS011;13517;59.320;18.042;2023-04-07T09:23:32;2.22;;;1.42;;
25657;SDS011;13517;59.320;18.042;2023-04-07T09:25:59;2.63;;;1.77;;
25657;SDS011;13517;59.320;18.042;2023-04-07T09:28:25;1.70;;;1.42;;
25657;SDS011;13517;59.320;18.042;2023-04-07T09:31:02;1.92;;;1.40;;
25657;SDS011;13517;59.320;18.042;2023-04-07T09:33:27;2.47;;;1.77;;
25657;SDS011;13517;59.320;18.042;2023-04-07T09:35:52;2.78;;;2.10;;
25657;SDS011;13517;59.320;18.042;2023-04-07T09:38:18;2.40;;;1.63;;
25657;SDS011;13517;59.320;18.042;2023-04-07T09:40:43;1.50;;;1.40;;
25657;SDS011;13517;59.320;18.042;2023-04-07T09:43:13;1.75;;;1.50;;
25657;SDS011;13517;59.320;18.042;2023-04-07T09:45:39;2.00;;;1.60;;
25657;SDS011;13517;59.320;18.042;2023-04-07T09:48:07;3.22;;;1.95;;
25657;SDS011;13517;59.320;18.042;2023-04-07T09:50:33;2.42;;;1.83;;
25657;SDS011;13517;59.320;18.042;2023-04-07T09:52:59;2.15;;;1.63;;
25657;SDS011;13517;59.320;18.042;2023-04-07T09:55:25;2.67;;;2.10;;
25657;SDS011;13517;59.320;18.042;2023-04-07T09:57:52;1.58;;;1.45;;
25657;SDS011;13517;59.320;18.042;2023-04-07T10:00:19;1.83;;;1.55;;
25657;SDS011;13517;59.320;18.042;2023-04-07T10:02:45;3.38;;;2.00;;
25657;SDS011;13517;59.320;18.042;2023-04-07T10:05:10;3.10;;;1.90;;
25657;SDS011;13517;59.320;18.042;2023-04-07T10:07:36;2.75;;;2.08;;
25657;SDS011;13517;59.320;18.042;2023-04-07T10:10:02;3.40;;;2.22;;
25657;SDS011;13517;59.320;18.042;2023-04-07T10:12:27;2.53;;;2.13;;
25657;SDS011;13517;59.320;18.042;2023-04-07T10:14:55;3.50;;;1.95;;
25657;SDS011;13517;59.320;18.042;2023-04-07T10:17:21;2.13;;;1.73;;
25657;SDS011;13517;59.320;18.042;2023-04-07T10:19:46;2.20;;;2.00;;
25657;SDS011;13517;59.320;18.042;2023-04-07T10:22:12;3.70;;;2.15;;
25657;SDS011;13517;59.320;18.042;2023-04-07T10:27:20;3.15;;;1.95;;
25657;SDS011;13517;59.320;18.042;2023-04-07T10:29:48;2.67;;;2.10;;
25657;SDS011;13517;59.320;18.042;2023-04-07T10:32:14;2.67;;;1.98;;
25657;SDS011;13517;59.320;18.042;2023-04-07T10:37:14;2.17;;;1.70;;
25657;SDS011;13517;59.320;18.042;2023-04-07T10:39:42;4.90;;;2.55;;
25657;SDS011;13517;59.320;18.042;2023-04-07T10:42:07;4.65;;;2.20;;
25657;SDS011;13517;59.320;18.042;2023-04-07T10:44:52;2.72;;;2.08;;
25657;SDS011;13517;59.320;18.042;2023-04-07T10:47:17;3.67;;;2.35;;
25657;SDS011;13517;59.320;18.042;2023-04-07T10:52:27;2.38;;;1.90;;
25657;SDS011;13517;59.320;18.042;2023-04-07T10:57:36;2.33;;;2.08;;
25657;SDS011;13517;59.320;18.042;2023-04-07T11:02:37;2.35;;;1.95;;
25657;SDS011;13517;59.320;18.042;2023-04-07T11:05:03;1.73;;;1.55;;
25657;SDS011;13517;59.320;18.042;2023-04-07T11:07:48;2.45;;;1.60;;
25657;SDS011;13517;59.320;18.042;2023-04-07T11:10:17;1.88;;;1.58;;
25657;SDS011;13517;59.320;18.042;2023-04-07T11:12:43;1.65;;;1.48;;
25657;SDS011;13517;59.320;18.042;2023-04-07T11:15:21;3.65;;;1.80;;
25657;SDS011;13517;59.320;18.042;2023-04-07T11:17:46;1.88;;;1.50;;
25657;SDS011;13517;59.320;18.042;2023-04-07T11:20:12;2.00;;;1.75;;
25657;SDS011;13517;59.320;18.042;2023-04-07T11:22:37;1.83;;;1.50;;
25657;SDS011;13517;59.320;18.042;2023-04-07T11:25:03;2.33;;;1.50;;
25657;SDS011;13517;59.320;18.042;2023-04-07T11:27:44;2.67;;;1.77;;
25657;SDS011;13517;59.320;18.042;2023-04-07T11:30:09;3.65;;;1.67;;
25657;SDS011;13517;59.320;18.042;2023-04-07T11:32:34;1.92;;;1.55;;
25657;SDS011;13517;59.320;18.042;2023-04-07T11:35:00;1.38;;;1.27;;
25657;SDS011;13517;59.320;18.042;2023-04-07T11:37:25;1.80;;;1.65;;
25657;SDS011;13517;59.320;18.042;2023-04-07T11:39:56;1.75;;;1.63;;
25657;SDS011;13517;59.320;18.042;2023-04-07T11:42:32;2.03;;;1.83;;
25657;SDS011;13517;59.320;18.042;2023-04-07T11:44:57;3.90;;;1.70;;
25657;SDS011;13517;59.320;18.042;2023-04-07T11:47:32;3.17;;;1.98;;
25657;SDS011;13517;59.320;18.042;2023-04-07T11:49:57;4.13;;;1.65;;
25657;SDS011;13517;59.320;18.042;2023-04-07T11:52:22;2.25;;;1.67;;
25657;SDS011;13517;59.320;18.042;2023-04-07T11:54:49;1.70;;;1.60;;
25657;SDS011;13517;59.320;18.042;2023-04-07T11:57:23;2.15;;;1.65;;
25657;SDS011;13517;59.320;18.042;2023-04-07T11:59:48;2.03;;;1.77;;
25657;SDS011;13517;59.320;18.042;2023-04-07T12:02:29;2.45;;;1.85;;
25657;SDS011;13517;59.320;18.042;2023-04-07T12:04:55;2.60;;;1.80;;
25657;SDS011;13517;59.320;18.042;2023-04-07T12:07:21;3.20;;;1.88;;
25657;SDS011;13517;59.320;18.042;2023-04-07T12:09:46;2.45;;;1.75;;
25657;SDS011;13517;59.320;18.042;2023-04-07T12:12:12;2.50;;;2.08;;
25657;SDS011;13517;59.320;18.042;2023-04-07T12:14:37;1.92;;;1.50;;
25657;SDS011;13517;59.320;18.042;2023-04-07T12:17:02;4.20;;;1.50;;
25657;SDS011;13517;59.320;18.042;2023-04-07T12:19:28;2.35;;;1.73;;
25657;SDS011;13517;59.320;18.042;2023-04-07T12:21:54;2.38;;;1.50;;
25657;SDS011;13517;59.320;18.042;2023-04-07T12:24:19;3.72;;;1.63;;
25657;SDS011;13517;59.320;18.042;2023-04-07T12:26:46;2.42;;;1.73;;
25657;SDS011;13517;59.320;18.042;2023-04-07T12:29:12;4.15;;;1.60;;
25657;SDS011;13517;59.320;18.042;2023-04-07T12:31:37;3.13;;;2.67;;
25657;SDS011;13517;59.320;18.042;2023-04-07T12:34:02;1.80;;;1.38;;
25657;SDS011;13517;59.320;18.042;2023-04-07T12:36:28;1.88;;;1.52;;
25657;SDS011;13517;59.320;18.042;2023-04-07T12:38:53;2.42;;;1.65;;
25657;SDS011;13517;59.320;18.042;2023-04-07T12:41:19;3.35;;;1.58;;
25657;SDS011;13517;59.320;18.042;2023-04-07T12:43:44;2.25;;;1.75;;
25657;SDS011;13517;59.320;18.042;2023-04-07T12:46:10;6.28;;;1.63;;
25657;SDS011;13517;59.320;18.042;2023-04-07T12:48:35;2.47;;;1.60;;
25657;SDS011;13517;59.320;18.042;2023-04-07T12:51:00;4.63;;;1.65;;
25657;SDS011;13517;59.320;18.042;2023-04-07T12:53:26;3.35;;;1.70;;
25657;SDS011;13517;59.320;18.042;2023-04-07T12:55:51;2.10;;;1.70;;
25657;SDS011;13517;59.320;18.042;2023-04-07T12:58:16;1.83;;;1.60;;
25657;SDS011;13517;59.320;18.042;2023-04-07T13:00:43;4.13;;;2.40;;
25657;SDS011;13517;59.320;18.042;2023-04-07T13:03:08;3.45;;;1.70;;
25657;SDS011;13517;59.320;18.042;2023-04-07T13:05:34;6.63;;;2.35;;
25657;SDS011;13517;59.320;18.042;2023-04-07T13:07:59;2.17;;;1.85;;
25657;SDS011;13517;59.320;18.042;2023-04-07T13:10:25;2.97;;;1.63;;
25657;SDS011;13517;59.320;18.042;2023-04-07T13:12:50;3.38;;;1.92;;
25657;SDS011;13517;59.320;18.042;2023-04-07T13:15:15;3.08;;;1.98;;
25657;SDS011;13517;59.320;18.042;2023-04-07T13:17:40;4.70;;;1.80;;
25657;SDS011;13517;59.320;18.042;2023-04-07T13:20:06;3.65;;;2.10;;
25657;SDS011;13517;59.320;18.042;2023-04-07T13:22:31;5.60;;;2.50;;
25657;SDS011;13517;59.320;18.042;2023-04-07T13:24:57;2.17;;;1.95;;
25657;SDS011;13517;59.320;18.042;2023-04-07T13:27:22;2.40;;;1.92;;
25657;SDS011;13517;59.320;18.042;2023-04-07T13:29:47;2.90;;;2.20;;
25657;SDS011;13517;59.320;18.042;2023-04-07T13:32:13;3.22;;;2.47;;
25657;SDS011;13517;59.320;18.042;2023-04-07T13:34:39;3.85;;;2.17;;
25657;SDS011;13517;59.320;18.042;2023-04-07T13:37:04;3.42;;;2.45;;
25657;SDS011;13517;59.320;18.042;2023-04-07T13:39:30;12.40;;;4.57;;
25657;SDS011;13517;59.320;18.042;2023-04-07T13:41:56;4.50;;;2.70;;
25657;SDS011;13517;59.320;18.042;2023-04-07T13:44:22;3.47;;;2.10;;
25657;SDS011;13517;59.320;18.042;2023-04-07T13:46:47;3.65;;;2.28;;
25657;SDS011;13517;59.320;18.042;2023-04-07T13:49:13;5.20;;;2.53;;
25657;SDS011;13517;59.320;18.042;2023-04-07T13:51:39;6.85;;;2.20;;
25657;SDS011;13517;59.320;18.042;2023-04-07T13:54:04;3.90;;;2.22;;
25657;SDS011;13517;59.320;18.042;2023-04-07T13:56:30;5.28;;;2.42;;
25657;SDS011;13517;59.320;18.042;2023-04-07T13:58:55;3.50;;;2.25;;
25657;SDS011;13517;59.320;18.042;2023-04-07T14:01:20;2.65;;;2.13;;
25657;SDS011;13517;59.320;18.042;2023-04-07T14:03:46;5.97;;;2.53;;
25657;SDS011;13517;59.320;18.042;2023-04-07T14:06:11;3.78;;;2.50;;
25657;SDS011;13517;59.320;18.042;2023-04-07T14:08:37;5.03;;;2.60;;
25657;SDS011;13517;59.320;18.042;2023-04-07T14:11:02;4.13;;;2.30;;
25657;SDS011;13517;59.320;18.042;2023-04-07T14:13:27;3.60;;;2.40;;
25657;SDS011;13517;59.320;18.042;2023-04-07T14:15:52;3.17;;;2.15;;
25657;SDS011;13517;59.320;18.042;2023-04-07T14:18:18;3.60;;;2.50;;
25657;SDS011;13517;59.320;18.042;2023-04-07T14:20:43;8.00;;;2.83;;
25657;SDS011;13517;59.320;18.042;2023-04-07T14:23:08;3.50;;;2.13;;
25657;SDS011;13517;59.320;18.042;2023-04-07T14:25:34;3.80;;;2.20;;
25657;SDS011;13517;59.320;18.042;2023-04-07T14:28:00;5.28;;;2.20;;
25657;SDS011;13517;59.320;18.042;2023-04-07T14:30:25;3.05;;;2.00;;
25657;SDS011;13517;59.320;18.042;2023-04-07T14:32:50;2.25;;;1.75;;
25657;SDS011;13517;59.320;18.042;2023-04-07T14:35:17;3.00;;;1.98;;
25657;SDS011;13517;59.320;18.042;2023-04-07T14:37:42;4.80;;;2.63;;
25657;SDS011;13517;59.320;18.042;2023-04-07T14:40:07;2.72;;;2.33;;
25657;SDS011;13517;59.320;18.042;2023-04-07T14:42:33;7.43;;;2.10;;
25657;SDS011;13517;59.320;18.042;2023-04-07T14:44:59;3.05;;;2.40;;
25657;SDS011;13517;59.320;18.042;2023-04-07T14:47:25;6.22;;;2.20;;